»·PEaware :: RNGR812 KNGP-KNGP

RNGR812 :: KNGP-KNGP

FLIGHT INFORMATION

Flight Status: Arrived
Operator: Unknown
More flights by this operator :: More flights under this callsign
Pilot: USN Avenger (31125)
Aircraft: BEECH AIRCRAFT T-6A TEXAN
(TEX2)
More flights by this aircraft type
Origin: KNGP Corpus Christi NAS/Truax
United States
Destination: KNGP Corpus Christi NAS/Truax
United States
More flights between these airports :: More routes between these airports
Route: , PORTLAND LOW, KNGT, KTFP, SHAMROCK
File this flight plan on PilotEdge
Remarks:
Altitude:
(Current/Filed)
14,500ft
Speed:
(Current/Filed)
240kts
Departed: 29-Nov-23 02:46 PM
Arrived: 29-Nov-23 03:42 PM
Distance/Time
Traveled:
0nm/0:56
Distance/Time
To Go:
Arrived

Flight Plot

Page will automatically refresh every two minutes.

Flight plan parsing failed; only flown route is shown


Map Options




Map Legend


Flown Route
Filed Route
Departure Airport
Arrival Airport
Navaid (VOR, NDB)
Fix

Horizontal Profiles

Position Reports

Time Latitude Longitude Heading Altitude Ground
Speed
29-Nov-23 14:33 27.700529 -97.301054 134 22ft 0kts
29-Nov-23 14:34 27.700528 -97.301053 134 22ft 0kts
29-Nov-23 14:35 27.700527 -97.301052 134 22ft 0kts
29-Nov-23 14:36 27.700526 -97.301050 134 22ft 0kts
29-Nov-23 14:37 27.700525 -97.301049 134 22ft 0kts
29-Nov-23 14:38 27.700523 -97.301048 134 22ft 0kts
29-Nov-23 14:39 27.700522 -97.301046 134 22ft 0kts
29-Nov-23 14:40 27.700521 -97.301045 134 22ft 0kts
29-Nov-23 14:41 27.700520 -97.301044 134 22ft 0kts
29-Nov-23 14:42 27.700518 -97.301042 134 22ft 0kts
29-Nov-23 14:43 27.700517 -97.301041 134 22ft 0kts
29-Nov-23 14:44 27.700516 -97.301039 134 22ft 0kts
29-Nov-23 14:45 27.700515 -97.301038 134 22ft 0kts
29-Nov-23 14:46 27.695019 -97.294819 134 84ft 117kts
29-Nov-23 14:47 27.663607 -97.255795 125 576ft 202kts
29-Nov-23 14:48 27.699333 -97.230484 352 546ft 208kts
29-Nov-23 14:49 27.738787 -97.235718 356 584ft 223kts
29-Nov-23 14:50 27.802445 -97.235056 1 665ft 228kts
29-Nov-23 14:51 27.853360 -97.273137 307 641ft 232kts
29-Nov-23 14:52 27.893620 -97.330092 323 551ft 238kts
29-Nov-23 14:53 27.951097 -97.346189 359 2436ft 212kts
29-Nov-23 14:53 27.991364 -97.349003 345 4227ft 201kts
29-Nov-23 14:55 28.031228 -97.363050 341 5508ft 224kts
29-Nov-23 14:56 28.098629 -97.383729 343 5555ft 266kts
29-Nov-23 14:57 28.169102 -97.411562 339 5476ft 265kts
29-Nov-23 14:57 28.224996 -97.436012 339 5506ft 252kts
29-Nov-23 14:58 28.288263 -97.470227 330 5500ft 254kts
29-Nov-23 14:59 28.343450 -97.519797 314 5499ft 256kts
29-Nov-23 15:01 28.396760 -97.591788 307 5523ft 254kts
29-Nov-23 15:02 28.437211 -97.657696 304 5458ft 254kts
29-Nov-23 15:02 28.473072 -97.709638 311 4031ft 250kts
29-Nov-23 15:03 28.519926 -97.761346 322 1685ft 220kts
29-Nov-23 15:04 28.569286 -97.792987 347 1318ft 200kts
29-Nov-23 15:05 28.623147 -97.793237 37 1287ft 201kts
29-Nov-23 15:06 28.644527 -97.736032 76 1345ft 199kts
29-Nov-23 15:07 28.646602 -97.673156 94 1389ft 197kts
29-Nov-23 15:08 28.624340 -97.615763 109 1346ft 200kts
29-Nov-23 15:09 28.627902 -97.578820 295 1099ft 125kts
29-Nov-23 15:10 28.633885 -97.616778 277 1139ft 122kts
29-Nov-23 15:11 28.621045 -97.618310 111 339ft 91kts
29-Nov-23 15:12 28.609551 -97.580391 115 748ft 178kts
29-Nov-23 15:13 28.564513 -97.542836 141 1795ft 214kts
29-Nov-23 15:14 28.519400 -97.499914 138 2872ft 231kts
29-Nov-23 15:15 28.468804 -97.452538 149 2577ft 238kts
29-Nov-23 15:16 28.411080 -97.412320 143 2559ft 248kts
29-Nov-23 15:17 28.353089 -97.369323 151 2484ft 249kts
29-Nov-23 15:18 28.289832 -97.339853 165 2492ft 245kts
29-Nov-23 15:19 28.228017 -97.309822 141 2504ft 245kts
29-Nov-23 15:20 28.175127 -97.262320 144 2704ft 240kts
29-Nov-23 15:21 28.116736 -97.223625 154 2577ft 248kts
29-Nov-23 15:22 28.054478 -97.192960 158 2533ft 241kts
29-Nov-23 15:23 27.991623 -97.166475 171 2607ft 243kts
29-Nov-23 15:24 27.932829 -97.169430 204 2667ft 246kts
29-Nov-23 15:25 27.903420 -97.194512 226 3512ft 219kts
29-Nov-23 15:26 27.916629 -97.257218 311 2271ft 240kts
29-Nov-23 15:27 27.955951 -97.267679 124 1103ft 200kts
29-Nov-23 15:28 27.934231 -97.233187 124 1071ft 196kts
29-Nov-23 15:29 27.905212 -97.189570 40 1001ft 141kts
29-Nov-23 15:30 27.932455 -97.210177 307 843ft 125kts
29-Nov-23 15:31 27.915700 -97.214088 139 22ft 90kts
29-Nov-23 15:32 27.906041 -97.204327 137 337ft 141kts
29-Nov-23 15:33 27.867438 -97.173537 159 1189ft 214kts
29-Nov-23 15:34 27.802532 -97.162509 178 967ft 232kts
29-Nov-23 15:35 27.749596 -97.184786 250 1086ft 202kts
29-Nov-23 15:36 27.732770 -97.245437 253 1053ft 203kts
29-Nov-23 15:37 27.709495 -97.299852 169 1092ft 192kts
29-Nov-23 15:38 27.688449 -97.259746 358 863ft 130kts
29-Nov-23 15:39 27.707412 -97.286978 306 903ft 116kts
29-Nov-23 15:40 27.693559 -97.289787 135 25ft 90kts
29-Nov-23 15:41 27.689301 -97.285002 134 22ft 7kts

Navigation Log

Ident Type
Flight plan parsing failed, navigation log unavailable